Time;durP1;ratioP1;P1;durP2;ratioP2;P2;SDS_P1;SDS_P2;PMS_P1;PMS_P2;Temp;Humidity;BMP_temperature;BMP_pressure;BME280_temperature;BME280_humidity;BME280_pressure;Samples;Min_cycle;Max_cycle;Signal;HPM_P1;HPM_P2
2022/01/30 00:00:00;;;;;;;33.90;9.03;;;8.20;99.90;;;;;;5013876;28;20422;-72
2022/01/30 00:02:27;;;;;;;39.40;9.23;;;8.20;99.90;;;;;;5013586;28;20335;-71
2022/01/30 00:04:53;;;;;;;39.07;9.07;;;8.20;99.90;;;;;;4995705;28;20044;-71
2022/01/30 00:07:20;;;;;;;35.83;8.27;;;8.10;99.90;;;;;;5013312;28;20120;-71
2022/01/30 00:09:46;;;;;;;45.30;9.63;;;8.10;99.90;;;;;;5013411;28;20022;-71
2022/01/30 00:12:15;;;;;;;38.97;8.40;;;8.10;99.90;;;;;;4995708;28;20658;-71
2022/01/30 00:14:41;;;;;;;40.80;8.82;;;8.10;99.90;;;;;;5013018;28;20030;-72
2022/01/30 00:17:14;;;;;;;46.00;7.93;;;8.10;99.90;;;;;;4995723;28;20068;-71
2022/01/30 00:19:46;;;;;;;43.10;9.47;;;8.10;99.90;;;;;;5012821;28;20030;-71
2022/01/30 00:27:17;;;;;;;39.75;7.78;;;8.00;99.90;;;;;;5013002;28;20026;-71
2022/01/30 00:29:43;;;;;;;31.73;6.10;;;8.00;99.90;;;;;;4995436;28;20122;-71
2022/01/30 00:32:09;;;;;;;35.00;5.73;;;8.00;99.90;;;;;;5013009;28;20076;-71
2022/01/30 00:34:35;;;;;;;29.50;5.27;;;7.90;99.90;;;;;;5012721;28;20309;-71
2022/01/30 00:37:03;;;;;;;28.43;4.97;;;7.90;99.90;;;;;;5012835;28;20390;-71
2022/01/30 00:39:29;;;;;;;24.40;4.47;;;7.90;99.90;;;;;;4995008;28;20762;-72
2022/01/30 00:41:55;;;;;;;27.83;4.67;;;7.90;99.90;;;;;;5012733;28;20041;-71
2022/01/30 00:44:21;;;;;;;20.93;4.23;;;7.90;99.90;;;;;;4994905;28;20128;-71
2022/01/30 00:46:48;;;;;;;27.87;4.93;;;7.90;99.90;;;;;;5012486;28;20092;-71
2022/01/30 00:49:14;;;;;;;24.97;3.27;;;7.90;99.90;;;;;;4995087;28;20073;-71
2022/01/30 00:51:40;;;;;;;24.20;3.87;;;7.90;99.90;;;;;;4994665;28;20029;-72
2022/01/30 00:54:06;;;;;;;23.57;3.53;;;7.90;99.90;;;;;;5012032;28;20386;-71
2022/01/30 00:56:33;;;;;;;26.97;3.87;;;7.90;99.90;;;;;;5012271;28;20495;-71
2022/01/30 00:58:59;;;;;;;19.13;3.80;;;7.90;99.90;;;;;;4994575;28;20030;-72
2022/01/30 01:01:25;;;;;;;27.47;4.30;;;7.90;99.90;;;;;;4994847;28;20394;-71
2022/01/30 01:03:51;;;;;;;23.97;4.30;;;7.80;99.90;;;;;;5012044;28;20041;-73
2022/01/30 01:06:17;;;;;;;32.17;4.67;;;7.80;99.90;;;;;;5012177;28;20053;-71
2022/01/30 01:09:01;;;;;;;29.47;3.83;;;7.80;99.90;;;;;;5010865;28;20037;-72
2022/01/30 01:25:05;;;;;;;26.03;4.43;;;7.80;99.90;;;;;;5011975;28;20097;-72
2022/01/30 01:27:31;;;;;;;23.27;4.13;;;7.70;99.90;;;;;;4994464;28;20034;-72
2022/01/30 01:29:57;;;;;;;29.93;4.27;;;7.80;99.90;;;;;;5012376;28;20036;-71
2022/01/30 01:32:23;;;;;;;25.57;4.47;;;7.80;99.90;;;;;;5012818;28;20061;-71
2022/01/30 01:34:49;;;;;;;25.33;4.10;;;7.70;99.90;;;;;;4994644;28;20037;-72
2022/01/30 01:37:14;;;;;;;25.50;3.63;;;7.70;99.90;;;;;;5012120;28;20036;-71
2022/01/30 01:39:40;;;;;;;25.47;4.47;;;7.70;99.90;;;;;;5010597;28;20134;-71
2022/01/30 01:42:06;;;;;;;28.63;4.30;;;7.70;99.90;;;;;;4994137;28;20092;-72
2022/01/30 01:44:46;;;;;;;28.93;4.00;;;7.70;99.90;;;;;;5012079;28;20033;-71
2022/01/30 01:47:12;;;;;;;22.85;3.92;;;7.70;99.90;;;;;;5015802;28;20034;-71
2022/01/30 01:49:39;;;;;;;25.77;3.90;;;7.60;99.90;;;;;;5015992;28;20046;-71
2022/01/30 01:52:21;;;;;;;30.80;5.00;;;7.60;99.90;;;;;;4998383;28;20026;-71
2022/01/30 01:54:54;;;;;;;29.80;4.57;;;7.60;99.90;;;;;;5015771;28;20022;-71
2022/01/30 01:57:22;;;;;;;22.87;4.40;;;7.50;99.90;;;;;;4998073;28;20030;-71
2022/01/30 01:59:52;;;;;;;23.63;4.20;;;7.50;99.90;;;;;;4997985;28;20434;-71
2022/01/30 02:02:38;;;;;;;27.80;3.90;;;7.50;99.90;;;;;;5015469;28;20045;-73
2022/01/30 02:05:05;;;;;;;25.43;4.70;;;7.50;99.90;;;;;;4997660;28;20081;-71
2022/01/30 02:10:21;;;;;;;28.50;4.07;;;7.40;99.90;;;;;;5015561;28;20026;-71
2022/01/30 02:12:51;;;;;;;23.17;3.97;;;7.40;99.90;;;;;;4997877;28;20380;-71
2022/01/30 02:26:02;;;;;;;26.03;4.43;;;7.30;99.90;;;;;;4997741;28;20079;-71
2022/01/30 02:28:31;;;;;;;28.90;3.73;;;7.30;99.90;;;;;;4997572;28;20022;-71
2022/01/30 02:31:13;;;;;;;22.90;4.05;;;7.20;99.90;;;;;;5014926;28;20033;-71
2022/01/30 02:33:41;;;;;;;29.43;4.87;;;7.20;99.90;;;;;;5014953;28;20030;-71
2022/01/30 02:36:07;;;;;;;29.43;4.23;;;7.20;99.90;;;;;;4997201;28;20143;-71
2022/01/30 02:38:33;;;;;;;35.37;4.47;;;7.20;99.90;;;;;;5014838;28;20072;-71
2022/01/30 02:40:59;;;;;;;29.03;4.93;;;7.20;99.90;;;;;;4997321;28;20030;-71
2022/01/30 02:43:36;;;;;;;28.27;4.57;;;7.10;99.90;;;;;;4997421;28;20040;-72
2022/01/30 02:48:48;;;;;;;31.40;4.38;;;7.10;99.90;;;;;;5013409;28;20033;-71
2022/01/30 02:51:17;;;;;;;30.03;4.50;;;7.20;99.90;;;;;;5014877;28;20026;-71
2022/01/30 02:53:47;;;;;;;25.63;4.90;;;7.10;99.90;;;;;;4997075;28;20129;-71
2022/01/30 02:56:13;;;;;;;25.05;4.25;;;7.10;99.90;;;;;;4997131;28;20038;-71
2022/01/30 02:58:39;;;;;;;34.30;6.60;;;7.10;99.90;;;;;;4996853;28;20529;-71
2022/01/30 03:01:04;;;;;;;31.60;5.53;;;7.20;99.90;;;;;;4996855;28;20053;-71
2022/01/30 03:03:30;;;;;;;41.20;7.43;;;7.20;99.90;;;;;;4996726;28;20037;-72
2022/01/30 03:05:56;;;;;;;39.80;6.93;;;7.20;99.90;;;;;;4996681;28;20061;-71
2022/01/30 03:08:22;;;;;;;37.30;6.83;;;7.20;99.90;;;;;;4996699;28;20037;-71
2022/01/30 03:10:48;;;;;;;41.80;7.20;;;7.20;99.90;;;;;;4996777;28;20026;-71
2022/01/30 03:13:14;;;;;;;33.67;5.73;;;7.20;99.90;;;;;;4996659;28;20040;-71
2022/01/30 03:15:41;;;;;;;33.50;6.20;;;7.20;99.90;;;;;;5013039;28;20030;-71
2022/01/30 03:18:07;;;;;;;37.87;6.73;;;7.20;99.90;;;;;;5014076;28;20036;-72
2022/01/30 03:20:34;;;;;;;24.27;4.63;;;7.20;99.90;;;;;;4996731;28;20444;-71
2022/01/30 03:23:02;;;;;;;30.10;4.43;;;7.20;99.90;;;;;;4996744;28;20057;-70
2022/01/30 03:25:30;;;;;;;31.13;5.07;;;7.20;99.90;;;;;;4996590;28;20033;-72
2022/01/30 03:28:23;;;;;;;26.97;4.13;;;7.20;99.90;;;;;;5005557;28;20041;-72
2022/01/30 03:30:58;;;;;;;24.07;3.73;;;7.20;99.90;;;;;;4996568;28;20034;-71
2022/01/30 03:33:31;;;;;;;25.40;3.90;;;7.20;99.90;;;;;;5012798;28;20053;-71
2022/01/30 03:35:57;;;;;;;28.80;4.00;;;7.20;99.90;;;;;;4996597;28;20030;-71
2022/01/30 03:38:23;;;;;;;32.97;4.27;;;7.20;99.90;;;;;;4996064;28;20486;-72
2022/01/30 03:40:51;;;;;;;29.27;4.13;;;7.20;99.90;;;;;;4996418;28;20187;-71
2022/01/30 03:43:18;;;;;;;29.97;4.60;;;7.20;99.90;;;;;;4995976;28;20042;-71
2022/01/30 03:45:45;;;;;;;27.23;4.40;;;7.10;99.90;;;;;;5013763;28;20042;-71
2022/01/30 03:48:14;;;;;;;29.20;4.13;;;7.10;99.90;;;;;;4996023;28;20030;-71
2022/01/30 03:51:04;;;;;;;33.07;4.50;;;7.10;99.90;;;;;;5005418;28;20052;-72
2022/01/30 03:53:32;;;;;;;26.63;4.00;;;7.10;99.90;;;;;;4996096;28;20026;-71
2022/01/30 03:55:58;;;;;;;21.20;3.85;;;7.10;99.90;;;;;;4995923;28;20033;-71
2022/01/30 03:58:28;;;;;;;24.83;3.70;;;7.10;99.90;;;;;;4995855;28;20416;-71
2022/01/30 04:00:56;;;;;;;25.20;3.90;;;7.00;99.90;;;;;;4995623;28;20445;-71
2022/01/30 04:03:22;;;;;;;26.20;4.23;;;7.00;99.90;;;;;;4995408;28;20067;-71
2022/01/30 04:05:48;;;;;;;28.57;4.37;;;7.00;99.90;;;;;;4995518;28;20034;-72
2022/01/30 04:08:15;;;;;;;29.77;3.70;;;6.90;99.90;;;;;;4994985;28;20045;-71
2022/01/30 04:10:54;;;;;;;23.60;3.33;;;6.90;99.90;;;;;;4981155;28;20153;-71
2022/01/30 04:13:47;;;;;;;31.73;4.27;;;6.90;99.90;;;;;;4989496;28;20386;-71
2022/01/30 04:16:37;;;;;;;34.37;4.50;;;6.80;99.90;;;;;;4995582;28;20029;-71
2022/01/30 04:19:32;;;;;;;28.83;4.13;;;6.80;99.90;;;;;;4995795;28;20387;-72
2022/01/30 04:22:10;;;;;;;25.97;3.57;;;6.80;99.90;;;;;;5012973;28;20037;-72
2022/01/30 04:24:55;;;;;;;22.77;3.73;;;6.80;99.90;;;;;;5012774;28;20161;-72
2022/01/30 04:27:36;;;;;;;29.47;4.30;;;6.80;99.90;;;;;;4995110;28;20026;-71
2022/01/30 04:30:14;;;;;;;23.30;4.10;;;6.80;99.90;;;;;;5013023;28;20026;-71
2022/01/30 04:32:59;;;;;;;22.50;4.37;;;6.80;99.90;;;;;;5012626;28;20112;-71
2022/01/30 04:35:46;;;;;;;38.50;4.27;;;6.70;99.90;;;;;;4982006;28;20034;-71
2022/01/30 04:39:03;;;;;;;21.85;4.15;;;6.70;99.90;;;;;;5012204;28;20156;-71
2022/01/30 04:57:20;;;;;;;23.20;4.00;;;6.50;99.90;;;;;;5004268;28;20399;-71
2022/01/30 05:03:38;;;;;;;30.00;4.60;;;6.50;99.90;;;;;;5011056;28;20116;-71
2022/01/30 05:07:25;;;;;;;25.50;4.40;;;6.50;99.90;;;;;;4999171;28;20042;-71
2022/01/30 05:09:46;;;;;;;21.17;3.43;;;6.50;99.90;;;;;;4988940;28;20037;-71
2022/01/30 05:12:35;;;;;;;25.03;4.10;;;6.60;99.90;;;;;;4980481;28;20029;-71
2022/01/30 05:15:22;;;;;;;29.67;5.10;;;6.50;99.90;;;;;;4994588;28;20048;-71
2022/01/30 05:18:08;;;;;;;26.50;4.47;;;6.60;99.90;;;;;;4990869;28;20041;-71
2022/01/30 05:21:13;;;;;;;20.50;4.03;;;6.60;99.90;;;;;;4950980;29;20066;-71
2022/01/30 05:23:46;;;;;;;21.87;3.37;;;6.70;99.90;;;;;;4951271;29;20038;-71
2022/01/30 05:26:40;;;;;;;19.48;3.70;;;6.60;99.90;;;;;;4991336;28;20108;-71
2022/01/30 05:29:26;;;;;;;22.13;3.63;;;6.60;99.90;;;;;;4994452;28;20034;-71
2022/01/30 05:32:18;;;;;;;18.17;3.37;;;6.60;99.90;;;;;;4988831;28;20121;-71
2022/01/30 05:35:03;;;;;;;24.37;3.20;;;6.50;99.90;;;;;;4980469;28;20030;-71
2022/01/30 05:37:39;;;;;;;21.70;3.53;;;6.50;99.90;;;;;;4994185;28;20490;-71
2022/01/30 05:40:35;;;;;;;24.57;3.83;;;6.50;99.90;;;;;;5011215;28;20080;-71
2022/01/30 05:43:38;;;;;;;24.30;4.00;;;6.50;99.90;;;;;;4999308;28;20045;-71
2022/01/30 05:46:18;;;;;;;21.17;3.53;;;6.60;99.90;;;;;;5050755;22;20040;-85
2022/01/30 05:49:17;;;;;;;23.67;3.00;;;6.50;99.90;;;;;;5039193;28;20033;-85
2022/01/30 05:52:06;;;;;;;;;;;6.50;99.90;;;;;;5040643;28;20119;-85
2022/01/30 05:54:39;;;;;;;17.60;3.17;;;6.50;99.90;;;;;;5033069;28;19913;-85
2022/01/30 05:57:05;;;;;;;27.57;3.87;;;6.50;99.90;;;;;;5033202;28;20055;-85
2022/01/30 05:59:32;;;;;;;17.70;3.70;;;6.50;99.90;;;;;;5033259;28;20029;-85
2022/01/30 06:02:20;;;;;;;25.37;3.87;;;6.50;99.90;;;;;;5032985;28;20036;-85
2022/01/30 06:04:47;;;;;;;24.57;4.33;;;6.50;99.90;;;;;;5032914;28;20029;-85
2022/01/30 06:07:13;;;;;;;21.03;3.20;;;6.50;99.90;;;;;;5033096;28;20037;-85
2022/01/30 06:09:40;;;;;;;22.87;3.27;;;6.50;99.90;;;;;;5032759;28;20029;-85
2022/01/30 06:12:06;;;;;;;25.47;3.47;;;6.40;99.90;;;;;;5032953;28;20025;-85
2022/01/30 06:14:34;;;;;;;22.83;3.97;;;6.40;99.90;;;;;;5032539;28;20033;-85
2022/01/30 06:17:19;;;;;;;22.93;3.93;;;6.40;99.90;;;;;;5032793;28;20523;-85
2022/01/30 06:19:54;;;;;;;18.37;3.10;;;6.40;99.90;;;;;;5050844;28;20083;-85
2022/01/30 06:22:39;;;;;;;24.50;3.27;;;6.40;99.90;;;;;;5035524;28;20118;-85
2022/01/30 06:25:24;;;;;;;18.40;2.80;;;6.40;99.90;;;;;;5050516;28;20082;-85
2022/01/30 06:28:09;;;;;;;19.90;3.40;;;6.40;99.90;;;;;;5050812;28;20093;-85
2022/01/30 06:30:53;;;;;;;17.27;3.47;;;6.40;99.90;;;;;;5051357;28;20083;-85
2022/01/30 06:33:51;;;;;;;17.60;3.07;;;6.40;99.90;;;;;;5031059;28;20025;-85
2022/01/30 06:36:35;;;;;;;16.80;3.10;;;6.50;99.90;;;;;;5054368;28;20127;-85
2022/01/30 06:39:30;;;;;;;19.93;3.70;;;6.40;99.90;;;;;;5044969;28;20485;-85
2022/01/30 06:42:22;;;;;;;17.67;2.80;;;6.50;99.90;;;;;;5036395;28;20439;-85
2022/01/30 06:45:07;;;;;;;17.13;2.87;;;6.50;99.90;;;;;;5053888;28;20072;-85
2022/01/30 06:47:54;;;;;;;26.20;3.83;;;6.50;99.90;;;;;;5054228;28;20404;-85
2022/01/30 06:50:53;;;;;;;19.73;2.80;;;6.50;99.90;;;;;;5008201;28;20025;-85
2022/01/30 06:53:47;;;;;;;22.87;3.67;;;6.50;99.90;;;;;;5053177;28;20033;-85
2022/01/30 06:56:31;;;;;;;22.97;3.10;;;6.50;99.90;;;;;;5054249;28;20454;-85
2022/01/30 06:59:15;;;;;;;19.47;2.97;;;6.50;99.90;;;;;;5054317;28;20091;-85
2022/01/30 07:02:02;;;;;;;14.27;3.00;;;6.50;99.90;;;;;;5053944;28;20510;-85
2022/01/30 07:05:06;;;;;;;16.77;2.63;;;6.40;99.90;;;;;;5053229;28;20052;-84
2022/01/30 07:07:48;;;;;;;16.63;2.77;;;6.40;99.90;;;;;;5035858;28;20033;-84
2022/01/30 07:10:13;;;;;;;20.77;2.97;;;6.40;99.90;;;;;;5053722;28;20436;-84
2022/01/30 07:12:39;;;;;;;23.87;3.47;;;6.40;99.90;;;;;;5035803;28;20032;-84
2022/01/30 07:15:05;;;;;;;16.33;2.47;;;6.40;99.90;;;;;;5053294;28;20033;-85
2022/01/30 07:17:31;;;;;;;16.37;2.57;;;6.40;99.90;;;;;;5035593;28;20477;-84
2022/01/30 07:19:57;;;;;;;13.93;2.00;;;6.40;99.90;;;;;;5053408;28;20040;-84
2022/01/30 07:22:22;;;;;;;14.60;2.47;;;6.40;99.90;;;;;;5035718;28;20044;-84
2022/01/30 07:24:48;;;;;;;16.90;3.07;;;6.40;99.90;;;;;;5035583;28;20033;-85
2022/01/30 07:27:14;;;;;;;21.00;3.03;;;6.40;99.90;;;;;;5053295;28;20036;-85
2022/01/30 07:29:40;;;;;;;21.00;3.67;;;6.50;99.90;;;;;;5053171;28;20064;-85
2022/01/30 07:32:06;;;;;;;24.70;4.30;;;6.50;99.90;;;;;;5035722;28;20163;-84
2022/01/30 07:34:32;;;;;;;21.57;6.40;;;6.50;99.90;;;;;;5035291;28;20036;-84
2022/01/30 07:36:58;;;;;;;22.47;4.63;;;6.50;99.90;;;;;;5053151;28;20033;-85
2022/01/30 07:39:28;;;;;;;24.07;4.30;;;6.50;99.90;;;;;;5053546;28;20040;-85
2022/01/30 07:41:54;;;;;;;22.23;4.27;;;6.50;99.90;;;;;;5052918;28;20037;-85
2022/01/30 07:44:20;;;;;;;22.10;4.20;;;6.50;99.90;;;;;;5034337;28;20033;-85
2022/01/30 07:46:47;;;;;;;22.97;4.27;;;6.50;99.90;;;;;;5052967;28;20511;-85
2022/01/30 07:49:13;;;;;;;26.67;4.53;;;6.50;99.90;;;;;;5052917;28;20079;-84
2022/01/30 07:51:38;;;;;;;28.17;4.80;;;6.50;99.90;;;;;;5052913;28;20033;-85
2022/01/30 07:54:04;;;;;;;17.83;4.33;;;6.50;99.90;;;;;;5052660;28;20037;-85
2022/01/30 07:56:30;;;;;;;33.73;5.60;;;6.40;99.90;;;;;;5052771;28;20481;-84
2022/01/30 07:58:56;;;;;;;37.20;7.60;;;6.40;99.90;;;;;;5052528;28;20051;-84
2022/01/30 08:01:22;;;;;;;40.43;8.20;;;6.40;99.90;;;;;;5034904;28;20030;-84
2022/01/30 08:03:48;;;;;;;40.97;9.23;;;6.50;99.90;;;;;;5052424;28;20472;-85
2022/01/30 08:06:14;;;;;;;43.67;7.97;;;6.40;99.90;;;;;;5052760;28;20036;-85
2022/01/30 08:08:39;;;;;;;35.60;6.33;;;6.40;99.90;;;;;;5034620;28;20469;-85
2022/01/30 08:11:08;;;;;;;35.80;6.87;;;6.50;99.90;;;;;;5052637;28;20029;-84
2022/01/30 08:13:34;;;;;;;28.80;5.70;;;6.50;99.90;;;;;;5034428;28;20029;-84
2022/01/30 08:16:03;;;;;;;22.27;5.05;;;6.60;99.90;;;;;;5052462;28;20036;-85
2022/01/30 08:18:32;;;;;;;20.47;3.97;;;6.50;99.90;;;;;;5052469;28;20405;-84
2022/01/30 08:20:58;;;;;;;27.77;3.25;;;6.40;99.90;;;;;;5052543;28;20033;-84
2022/01/30 08:23:27;;;;;;;26.40;4.23;;;6.40;99.90;;;;;;5052027;28;20054;-84
2022/01/30 08:25:53;;;;;;;21.35;3.80;;;6.50;99.90;;;;;;5052140;28;20060;-84
2022/01/30 08:28:19;;;;;;;24.60;3.10;;;6.50;99.90;;;;;;5052377;28;20079;-84
2022/01/30 08:30:46;;;;;;;26.57;3.60;;;6.50;99.90;;;;;;5034533;28;20025;-84
2022/01/30 08:33:15;;;;;;;27.57;4.77;;;6.50;99.90;;;;;;5034633;28;20500;-84
2022/01/30 08:35:42;;;;;;;28.60;5.33;;;6.50;99.90;;;;;;5052106;28;20025;-84
2022/01/30 08:38:10;;;;;;;33.67;6.20;;;6.50;99.90;;;;;;5034270;28;20025;-84
2022/01/30 08:40:36;;;;;;;30.20;6.10;;;6.50;99.90;;;;;;5034180;28;20171;-84
2022/01/30 08:43:02;;;;;;;31.53;6.63;;;6.60;99.90;;;;;;5034290;28;20032;-84
2022/01/30 08:45:29;;;;;;;26.03;5.33;;;6.60;99.90;;;;;;5051727;28;20160;-84
2022/01/30 08:47:55;;;;;;;17.27;4.00;;;6.60;99.90;;;;;;5051935;28;20138;-84
2022/01/30 08:50:22;;;;;;;21.83;3.03;;;6.60;99.90;;;;;;5051769;28;20447;-84
2022/01/30 08:52:48;;;;;;;27.50;3.13;;;6.60;99.90;;;;;;5052339;28;20060;-84
2022/01/30 08:55:15;;;;;;;22.20;3.07;;;6.50;99.90;;;;;;5051234;28;20025;-84
2022/01/30 08:57:41;;;;;;;25.27;3.90;;;6.60;99.90;;;;;;5051776;28;20397;-84
2022/01/30 09:00:10;;;;;;;24.17;3.00;;;6.60;99.90;;;;;;5033909;28;20060;-84
2022/01/30 09:02:37;;;;;;;25.90;3.80;;;6.60;99.90;;;;;;5051951;28;20029;-84
2022/01/30 09:05:08;;;;;;;27.33;4.27;;;6.60;99.90;;;;;;5051350;28;20021;-84
2022/01/30 09:07:34;;;;;;;22.27;3.43;;;6.60;99.90;;;;;;5051165;28;20044;-84
2022/01/30 09:10:00;;;;;;;23.17;3.07;;;6.60;99.90;;;;;;5051668;28;20055;-85
2022/01/30 09:12:26;;;;;;;25.70;3.77;;;6.70;99.90;;;;;;5051437;28;20033;-84
2022/01/30 09:14:52;;;;;;;22.47;3.10;;;6.60;99.90;;;;;;5051219;28;20033;-84
2022/01/30 09:17:18;;;;;;;27.97;3.67;;;6.80;99.90;;;;;;5033510;28;20075;-84
2022/01/30 09:19:46;;;;;;;24.57;3.23;;;6.70;99.90;;;;;;5051268;28;20017;-84
2022/01/30 09:22:17;;;;;;;28.57;3.57;;;6.80;99.90;;;;;;5051228;28;20531;-84
2022/01/30 09:24:43;;;;;;;27.27;3.63;;;6.80;99.90;;;;;;5051334;28;20029;-84
2022/01/30 09:27:09;;;;;;;23.07;3.30;;;6.80;99.90;;;;;;5050970;28;20060;-84
2022/01/30 09:29:37;;;;;;;25.83;4.47;;;6.80;99.90;;;;;;5051455;28;20100;-84
2022/01/30 09:32:04;;;;;;;24.20;3.83;;;6.80;99.90;;;;;;5033251;28;20085;-84
2022/01/30 09:34:30;;;;;;;20.23;2.93;;;6.80;99.90;;;;;;5050930;28;20473;-84
2022/01/30 09:36:56;;;;;;;23.37;3.47;;;6.80;99.90;;;;;;5033179;28;20127;-84
2022/01/30 09:39:23;;;;;;;21.60;3.80;;;6.80;99.90;;;;;;5051268;28;20078;-84
2022/01/30 09:41:52;;;;;;;28.47;4.93;;;6.80;99.90;;;;;;5051084;28;20595;-84
2022/01/30 09:44:20;;;;;;;26.90;3.40;;;6.90;99.90;;;;;;5050848;28;20037;-84
2022/01/30 09:46:46;;;;;;;24.50;3.90;;;7.00;99.90;;;;;;5050981;28;20111;-84
2022/01/30 09:49:12;;;;;;;21.57;4.33;;;7.10;99.90;;;;;;5050893;28;20088;-84
2022/01/30 09:51:39;;;;;;;18.63;3.27;;;7.00;99.90;;;;;;5050863;28;20115;-84
2022/01/30 09:54:06;;;;;;;19.13;3.27;;;7.00;99.90;;;;;;5033245;28;20033;-84
2022/01/30 09:56:32;;;;;;;26.33;3.87;;;7.00;99.90;;;;;;5050910;28;20036;-84
2022/01/30 09:58:58;;;;;;;30.27;3.80;;;7.00;99.90;;;;;;5051003;28;20037;-84
2022/01/30 10:01:33;;;;;;;21.83;3.13;;;7.10;99.90;;;;;;5033234;28;20039;-84
2022/01/30 10:04:00;;;;;;;28.60;3.93;;;7.10;99.90;;;;;;5050739;28;20427;-84
2022/01/30 10:06:32;;;;;;;32.80;4.10;;;7.10;99.90;;;;;;5052403;28;20029;-84
2022/01/30 10:09:09;;;;;;;27.73;5.20;;;7.20;99.90;;;;;;5038131;28;20032;-84
2022/01/30 10:11:49;;;;;;;27.67;4.90;;;7.10;99.90;;;;;;5037114;28;20087;-84
2022/01/30 10:14:15;;;;;;;28.50;4.53;;;7.20;99.90;;;;;;5036827;28;20025;-84
2022/01/30 10:16:48;;;;;;;26.90;3.93;;;7.20;99.90;;;;;;5054588;28;20039;-85
2022/01/30 10:19:20;;;;;;;29.50;4.60;;;7.20;99.90;;;;;;5054578;28;20036;-85
2022/01/30 10:22:06;;;;;;;35.80;6.13;;;7.20;99.90;;;;;;5036773;28;20477;-85
2022/01/30 10:24:37;;;;;;;26.20;4.47;;;7.30;99.90;;;;;;5054331;28;20036;-84
2022/01/30 10:27:22;;;;;;;26.57;4.70;;;7.30;99.90;;;;;;5036550;28;20028;-85
2022/01/30 10:30:02;;;;;;;23.13;4.23;;;7.30;99.90;;;;;;5036603;28;20024;-85
2022/01/30 10:32:28;;;;;;;27.13;4.30;;;7.30;99.90;;;;;;5020138;28;20371;-85
2022/01/30 10:35:05;;;;;;;24.40;3.60;;;7.30;99.90;;;;;;5036247;28;20029;-85
2022/01/30 10:37:32;;;;;;;26.30;3.83;;;7.30;99.90;;;;;;5036702;28;20037;-85
2022/01/30 10:40:06;;;;;;;24.80;3.70;;;7.30;99.90;;;;;;5037725;28;20013;-85
2022/01/30 10:42:41;;;;;;;24.93;3.40;;;7.30;99.90;;;;;;5038524;28;20487;-86
2022/01/30 10:45:13;;;;;;;26.40;4.73;;;7.30;99.90;;;;;;5020973;28;20100;-86
2022/01/30 10:47:40;;;;;;;23.30;3.37;;;7.30;99.90;;;;;;5037512;28;20052;-86
2022/01/30 10:50:22;;;;;;;25.30;3.93;;;7.30;99.90;;;;;;5039083;28;20036;-85
2022/01/30 10:52:56;;;;;;;24.33;4.27;;;7.30;99.90;;;;;;5038913;28;20079;-85
2022/01/30 10:55:37;;;;;;;25.33;3.73;;;7.30;99.90;;;;;;5054630;28;20434;-86
2022/01/30 10:58:09;;;;;;;31.33;4.47;;;7.50;99.90;;;;;;5037184;28;20028;-85
2022/01/30 11:00:50;;;;;;;28.63;4.43;;;7.50;99.90;;;;;;5054471;28;20056;-85
2022/01/30 11:03:38;;;;;;;23.13;4.47;;;7.50;99.90;;;;;;5054160;28;20037;-85
2022/01/30 11:06:11;;;;;;;31.50;5.50;;;7.50;99.90;;;;;;5053886;28;20028;-85
2022/01/30 11:08:40;;;;;;;33.87;5.00;;;7.40;99.90;;;;;;5036087;28;20094;-86
2022/01/30 11:11:15;;;;;;;;;;;7.50;99.90;;;;;;5054829;28;20396;-85
2022/01/30 11:13:58;;;;;;;34.83;4.63;;;7.50;99.90;;;;;;5035745;28;20007;-86
2022/01/30 11:19:13;;;;;;;30.30;5.17;;;7.60;99.90;;;;;;5053143;28;20033;-86
2022/01/30 11:21:47;;;;;;;39.90;5.20;;;7.60;99.90;;;;;;5053799;28;20033;-87
2022/01/30 11:24:15;;;;;;;30.37;4.10;;;7.60;99.90;;;;;;5053587;28;20021;-86
2022/01/30 11:26:43;;;;;;;32.27;4.00;;;7.70;99.90;;;;;;5035645;28;20029;-86
2022/01/30 11:29:47;;;;;;;34.70;5.67;;;7.70;99.90;;;;;;5053711;28;20091;-86
2022/01/30 11:32:07;;;;;;;30.27;4.93;;;7.70;99.90;;;;;;5051385;28;20493;-86
2022/01/30 11:34:36;;;;;;;30.80;5.03;;;7.70;99.90;;;;;;5035397;28;20064;-87
2022/01/30 11:37:03;;;;;;;26.63;5.00;;;7.70;99.90;;;;;;5035606;28;20052;-86
2022/01/30 11:39:30;;;;;;;26.47;4.60;;;7.70;99.90;;;;;;5053420;28;20036;-86
2022/01/30 11:45:32;;;;;;;33.17;4.47;;;7.80;99.90;;;;;;5013077;28;20044;-85
2022/01/30 11:48:15;;;;;;;21.30;4.13;;;7.80;99.90;;;;;;5053165;28;20389;-86
2022/01/30 11:50:42;;;;;;;30.67;5.10;;;7.80;99.90;;;;;;5053236;28;20029;-86
2022/01/30 11:53:10;;;;;;;29.47;4.47;;;7.80;99.90;;;;;;5035590;28;20036;-86
2022/01/30 11:55:56;;;;;;;32.47;5.20;;;7.80;99.50;;;;;;5034832;28;20473;-86
2022/01/30 11:58:38;;;;;;;23.33;3.77;;;7.80;99.80;;;;;;5035470;28;20061;-86
2022/01/30 12:01:34;;;;;;;20.50;3.60;;;7.80;99.80;;;;;;5036000;28;20036;-86
2022/01/30 12:04:13;;;;;;;30.57;4.30;;;7.90;99.70;;;;;;5052871;28;20029;-87
2022/01/30 12:06:45;;;;;;;27.43;4.30;;;7.90;99.90;;;;;;5035279;28;20036;-86
2022/01/30 12:09:17;;;;;;;28.50;5.60;;;8.00;99.90;;;;;;5053614;28;20055;-86
2022/01/30 12:11:47;;;;;;;30.87;5.53;;;8.00;99.90;;;;;;5054295;28;20032;-86
2022/01/30 12:14:19;;;;;;;33.40;4.93;;;8.10;99.80;;;;;;5053445;28;20029;-87
2022/01/30 12:16:51;;;;;;;32.27;4.60;;;8.00;99.90;;;;;;5035091;28;20029;-87
2022/01/30 12:19:42;;;;;;;24.80;4.83;;;8.00;99.90;;;;;;5034724;28;20029;-87
2022/01/30 12:22:25;;;;;;;31.03;4.90;;;8.00;99.90;;;;;;5053075;28;20108;-87
2022/01/30 12:25:19;;;;;;;28.95;4.38;;;8.00;99.90;;;;;;5052637;28;20036;-87
2022/01/30 12:28:02;;;;;;;23.00;4.17;;;8.00;99.80;;;;;;5018515;28;20050;-87
2022/01/30 12:30:36;;;;;;;22.57;3.43;;;8.00;99.50;;;;;;5035084;28;20267;-86
2022/01/30 12:33:38;;;;;;;32.37;4.80;;;8.00;99.90;;;;;;5034719;28;20120;-86
2022/01/30 12:36:11;;;;;;;29.70;5.33;;;7.90;99.60;;;;;;5052441;28;20021;-87
2022/01/30 12:38:37;;;;;;;35.53;4.73;;;7.90;99.60;;;;;;5052445;28;20029;-87
2022/01/30 12:41:19;;;;;;;29.15;4.28;;;8.00;99.60;;;;;;5052131;28;20033;-87
2022/01/30 12:44:07;;;;;;;26.55;4.82;;;7.90;99.00;;;;;;5052116;28;20029;-86
2022/01/30 12:46:53;;;;;;;30.63;5.40;;;7.90;99.30;;;;;;5051810;28;20488;-87
2022/01/30 12:49:28;;;;;;;34.67;4.50;;;7.90;99.90;;;;;;5034171;28;20029;-85
2022/01/30 12:51:56;;;;;;;28.27;4.25;;;7.90;99.90;;;;;;5051962;28;20025;-85
2022/01/30 12:54:37;;;;;;;28.07;4.97;;;7.80;99.00;;;;;;5051919;28;20104;-85
2022/01/30 12:57:03;;;;;;;28.07;4.10;;;7.80;99.20;;;;;;5051872;28;20358;-86
2022/01/30 12:59:30;;;;;;;24.60;4.03;;;7.80;99.50;;;;;;5034110;28;20381;-85
2022/01/30 13:02:08;;;;;;;28.40;4.10;;;7.90;98.10;;;;;;5051988;28;20032;-86
2022/01/30 13:04:36;;;;;;;33.17;4.00;;;7.90;98.20;;;;;;5051524;28;20551;-86
2022/01/30 13:07:02;;;;;;;23.07;3.93;;;7.80;98.10;;;;;;5051446;28;20498;-86
2022/01/30 13:09:31;;;;;;;30.00;4.83;;;7.80;98.10;;;;;;5051562;28;20049;-85
2022/01/30 13:12:02;;;;;;;30.03;4.40;;;7.70;98.30;;;;;;5033857;28;20043;-85
2022/01/30 13:14:37;;;;;;;29.87;4.10;;;7.90;98.10;;;;;;5051253;28;20100;-85
2022/01/30 13:17:04;;;;;;;30.03;4.63;;;7.90;97.80;;;;;;5033480;28;20124;-86
2022/01/30 13:19:35;;;;;;;32.50;5.17;;;8.00;97.60;;;;;;5051718;28;20024;-86
2022/01/30 13:22:04;;;;;;;24.07;4.47;;;8.10;97.20;;;;;;5033487;28;20051;-85
2022/01/30 13:24:31;;;;;;;36.47;5.20;;;8.10;97.40;;;;;;5051290;28;20530;-86
2022/01/30 13:27:03;;;;;;;30.77;4.83;;;8.10;97.40;;;;;;5033517;28;20028;-85
2022/01/30 13:29:36;;;;;;;27.80;4.20;;;8.10;97.50;;;;;;5033582;28;20033;-86
2022/01/30 13:32:10;;;;;;;23.83;3.90;;;8.10;97.40;;;;;;5051154;28;20059;-86
2022/01/30 13:34:38;;;;;;;28.10;5.70;;;8.10;97.60;;;;;;5033492;28;20033;-86
2022/01/30 13:37:15;;;;;;;28.17;4.77;;;8.10;97.60;;;;;;5033234;28;20102;-86
2022/01/30 13:48:03;;;;;;;26.90;4.35;;;8.10;97.30;;;;;;5051192;28;20095;-86
2022/01/30 13:50:52;;;;;;;19.17;3.37;;;8.10;97.10;;;;;;5051236;28;20033;-86
2022/01/30 13:53:17;;;;;;;29.08;4.70;;;8.00;96.40;;;;;;5051085;28;20056;-85
2022/01/30 13:55:56;;;;;;;29.13;3.97;;;8.10;96.40;;;;;;5033300;28;20122;-85
2022/01/30 13:58:25;;;;;;;23.20;3.93;;;8.10;95.40;;;;;;5051066;28;20060;-85
2022/01/30 14:00:52;;;;;;;22.23;4.47;;;8.20;95.40;;;;;;5051116;28;20362;-85
2022/01/30 14:03:26;;;;;;;27.50;4.20;;;8.20;95.20;;;;;;5033000;28;20037;-85
2022/01/30 14:05:53;;;;;;;21.27;3.50;;;8.20;95.30;;;;;;5050950;28;20048;-85
2022/01/30 14:08:19;;;;;;;19.77;3.63;;;8.20;95.50;;;;;;5033434;28;20060;-86
2022/01/30 14:10:46;;;;;;;27.53;4.93;;;8.10;95.90;;;;;;5033434;28;20040;-85
2022/01/30 14:13:20;;;;;;;27.27;5.00;;;8.20;95.80;;;;;;5051322;28;20389;-86
2022/01/30 14:16:02;;;;;;;23.73;4.20;;;8.30;95.50;;;;;;5052190;28;20477;-85
2022/01/30 14:18:34;;;;;;;26.80;4.10;;;8.40;95.70;;;;;;5034165;28;20396;-85
2022/01/30 14:21:00;;;;;;;33.63;4.87;;;8.30;95.40;;;;;;5051861;28;20036;-85
2022/01/30 14:23:35;;;;;;;26.27;5.00;;;8.40;95.50;;;;;;5051678;28;20115;-85
2022/01/30 14:26:01;;;;;;;28.67;5.20;;;8.40;95.20;;;;;;5052070;28;20395;-85